Time;durP1;ratioP1;P1;durP2;ratioP2;P2;SDS_P1;SDS_P2;PMS_P1;PMS_P2;Temp;Humidity;BMP_temperature;BMP_pressure;BME280_temperature;BME280_humidity;BME280_pressure;Samples;Min_cycle;Max_cycle;Signal;HPM_P1;HPM_P2
2022/10/05 00:01:31;;;;;;;8.33;3.35;;;7.14;11.23;;;;;;2672018;76;21122;-90
2022/10/05 00:04:59;;;;;;;;;;;7.13;11.09;;;;;;2672556;76;22357;-90
2022/10/05 00:08:29;;;;;;;8.80;3.55;;;7.13;11.10;;;;;;2671862;76;21104;-90
2022/10/05 00:11:58;;;;;;;;;;;7.12;11.04;;;;;;2672758;76;22324;-90
2022/10/05 00:15:27;;;;;;;11.28;3.65;;;7.11;11.04;;;;;;2671767;76;21016;-90
2022/10/05 00:18:55;;;;;;;;;;;7.11;10.94;;;;;;2672487;76;22345;-90
2022/10/05 00:22:25;;;;;;;9.03;3.37;;;7.07;10.91;;;;;;2671671;76;21206;-88
2022/10/05 00:25:53;;;;;;;;;;;7.02;10.92;;;;;;2672041;76;22787;-89
2022/10/05 00:29:26;;;;;;;8.73;3.67;;;7.07;11.18;;;;;;2671892;76;21119;-90
2022/10/05 00:32:58;;;;;;;;;;;7.02;11.12;;;;;;2672629;76;22202;-89
2022/10/05 00:36:25;;;;;;;14.60;4.05;;;7.01;11.06;;;;;;2671414;76;21025;-89
2022/10/05 00:39:53;;;;;;;;;;;7.01;11.24;;;;;;2672138;76;22863;-88
2022/10/05 00:47:08;;;;;;;10.70;3.90;;;6.94;11.25;;;;;;2672064;76;22134;-89
2022/10/05 00:50:44;;;;;;;38.25;4.40;;;6.93;11.26;;;;;;2672192;76;22253;-90
2022/10/05 00:54:33;;;;;;;9.80;4.00;;;6.91;11.35;;;;;;2672290;76;22187;-90
2022/10/05 01:02:08;;;;;;;12.53;4.03;;;6.87;11.40;;;;;;2672071;76;22753;-90
2022/10/05 01:05:44;;;;;;;9.10;3.90;;;6.87;11.42;;;;;;2672015;76;22204;-90
2022/10/05 01:09:27;;;;;;;10.15;4.90;;;6.87;11.43;;;;;;2672326;76;22292;-90
2022/10/05 01:13:06;;;;;;;9.83;3.77;;;6.81;11.22;;;;;;2671939;76;22343;-89
2022/10/05 01:16:46;;;;;;;6.87;3.40;;;6.79;11.03;;;;;;2671783;76;22315;-89
2022/10/05 01:23:55;;;;;;;11.10;3.40;;;6.75;11.11;;;;;;2671991;76;22334;-91
2022/10/05 01:27:23;;;;;;;;;;;6.76;11.18;;;;;;2671914;76;22249;-91
2022/10/05 01:34:46;;;;;;;9.85;3.45;;;6.73;11.17;;;;;;2671646;76;23128;-91
2022/10/05 01:38:14;;;;;;;;;;;6.70;11.50;;;;;;2671756;76;22204;-91
2022/10/05 01:41:48;;;;;;;8.75;3.02;;;6.65;11.62;;;;;;2671243;76;21128;-90
2022/10/05 01:45:16;;;;;;;;;;;6.70;11.72;;;;;;2672262;76;22094;-91
2022/10/05 01:52:37;;;;;;;6.53;2.98;;;6.75;11.65;;;;;;2672308;76;22295;-91
2022/10/05 01:56:05;;;;;;;;;;;6.73;11.76;;;;;;2671800;76;22790;-91
2022/10/05 01:59:35;;;;;;;8.75;3.80;;;6.76;11.96;;;;;;2672149;76;21631;-90
2022/10/05 02:03:04;;;;;;;;;;;6.76;11.91;;;;;;2671862;76;22279;-91
2022/10/05 02:06:34;;;;;;;21.17;4.83;;;6.80;11.91;;;;;;2671708;76;21144;-91
2022/10/05 02:10:02;;;;;;;;;;;6.79;11.85;;;;;;2672299;76;22272;-91
2022/10/05 02:17:28;;;;;;;10.82;3.27;;;6.71;11.77;;;;;;2671591;76;23249;-92
2022/10/05 02:20:56;;;;;;;;;;;6.74;11.92;;;;;;2672291;76;22376;-90
2022/10/05 02:24:27;;;;;;;7.78;3.12;;;6.74;11.87;;;;;;2671323;76;21113;-91
2022/10/05 02:27:55;;;;;;;;;;;6.74;11.83;;;;;;2672047;76;22847;-91
2022/10/05 02:31:25;;;;;;;8.78;3.17;;;6.69;11.64;;;;;;2671349;76;21123;-91
2022/10/05 02:34:53;;;;;;;;;;;6.66;11.85;;;;;;2671625;76;22225;-91
2022/10/05 02:42:09;;;;;;;8.63;3.50;;;6.60;11.43;;;;;;2671947;76;22281;-91
2022/10/05 02:45:37;;;;;;;;;;;6.55;11.26;;;;;;2671603;76;22268;-91
2022/10/05 02:52:58;;;;;;;4.42;2.58;;;6.46;11.25;;;;;;2671961;76;22565;-91
2022/10/05 02:56:28;;;;;;;5.75;3.20;;;6.48;11.17;;;;;;2671995;76;22100;-91
2022/10/05 02:59:56;;;;;;;;;;;6.42;11.18;;;;;;2672219;76;22176;-91
2022/10/05 03:07:09;;;;;;;7.60;3.45;;;6.37;11.47;;;;;;2671814;76;22265;-91
2022/10/05 03:10:37;;;;;;;;;;;6.40;11.38;;;;;;2672749;76;22646;-90
2022/10/05 03:17:54;;;;;;;5.65;2.70;;;6.35;11.14;;;;;;2672254;76;22735;-91
2022/10/05 03:25:34;;;;;;;5.12;2.80;;;6.29;10.78;;;;;;2672497;76;22565;-91
2022/10/05 03:29:04;;;;;;;6.03;2.85;;;6.26;10.63;;;;;;2671997;76;22186;-91
2022/10/05 03:32:33;;;;;;;;;;;6.20;10.69;;;;;;2672427;76;22385;-91
2022/10/05 03:36:16;;;;;;;9.25;2.70;;;6.19;10.69;;;;;;2672407;76;21139;-91
2022/10/05 03:39:46;;;;;;;5.72;3.05;;;6.08;10.63;;;;;;2672511;76;22658;-91
2022/10/05 03:43:14;;;;;;;;;;;6.09;10.75;;;;;;2672969;76;22180;-91
2022/10/05 03:46:50;;;;;;;8.73;3.27;;;6.05;10.56;;;;;;2672414;76;21023;-91
2022/10/05 03:50:19;;;;;;;;;;;5.97;10.30;;;;;;2672912;76;22360;-91
2022/10/05 03:53:47;;;;;;;;;;;5.98;10.24;;;;;;2672504;76;20436;-91
2022/10/05 03:57:18;;;;;;;6.12;2.65;;;5.98;10.24;;;;;;2672117;76;20540;-91
2022/10/05 04:00:46;;;;;;;;;;;5.95;10.30;;;;;;2672443;76;23022;-91
2022/10/05 04:04:26;;;;;;;6.47;2.80;;;5.96;10.19;;;;;;2671819;76;21904;-91
2022/10/05 04:08:09;;;;;;;15.77;3.40;;;5.93;10.33;;;;;;2671602;76;22830;-91
2022/10/05 04:11:39;;;;;;;6.28;3.17;;;5.85;10.44;;;;;;2672350;76;22377;-91
2022/10/05 04:15:07;;;;;;;;;;;5.86;10.33;;;;;;2671455;76;22340;-91
2022/10/05 04:22:19;;;;;;;7.80;2.25;;;5.86;9.92;;;;;;2671847;76;22783;-91
2022/10/05 04:25:47;;;;;;;;;;;5.84;9.79;;;;;;2671056;76;22925;-93
2022/10/05 04:33:07;;;;;;;5.42;2.42;;;5.78;9.74;;;;;;2671610;76;22319;-92
2022/10/05 04:36:35;;;;;;;;;;;5.78;9.81;;;;;;2672194;76;22312;-92
2022/10/05 04:44:02;;;;;;;6.45;2.62;;;5.70;10.27;;;;;;2671901;75;22224;-92
2022/10/05 04:47:36;;;;;;;5.12;2.62;;;5.70;10.53;;;;;;2671864;76;22336;-91
2022/10/05 04:51:04;;;;;;;;;;;5.70;10.51;;;;;;2672069;76;22317;-93
2022/10/05 04:54:43;;;;;;;5.37;2.47;;;5.69;10.25;;;;;;2673147;76;21116;-92
2022/10/05 04:58:17;;;;;;;7.25;2.50;;;5.69;10.17;;;;;;2672759;76;22228;-92
2022/10/05 05:01:46;;;;;;;;;;;5.68;10.20;;;;;;2671129;76;22438;-91
2022/10/05 05:05:16;;;;;;;6.55;3.17;;;5.74;10.16;;;;;;2670100;76;21014;-91
2022/10/05 05:08:44;;;;;;;;;;;5.74;10.06;;;;;;2670980;76;22337;-88
2022/10/05 05:12:31;;;;;;;8.58;4.37;;;5.71;10.01;;;;;;2668814;76;21082;-91
2022/10/05 05:19:47;;;;;;;10.53;3.05;;;5.70;10.01;;;;;;2670895;76;22300;-89
2022/10/05 05:23:15;;;;;;;;;;;5.72;10.07;;;;;;2668511;76;23249;-90
2022/10/05 05:26:49;;;;;;;5.10;2.15;;;5.80;10.06;;;;;;2668775;76;21524;-89
2022/10/05 05:30:17;;;;;;;;;;;5.79;10.08;;;;;;2670480;76;22740;-86
2022/10/05 05:34:04;;;;;;;6.03;2.75;;;5.82;10.12;;;;;;2670944;76;21111;-89
2022/10/05 05:41:19;;;;;;;5.62;2.58;;;5.91;10.43;;;;;;2670254;76;22344;-89
2022/10/05 05:44:47;;;;;;;;;;;5.95;10.41;;;;;;2670554;76;22795;-89
2022/10/05 05:48:17;;;;;;;8.95;2.33;;;6.02;10.46;;;;;;2670008;76;21620;-88
2022/10/05 05:51:46;;;;;;;;;;;6.15;10.47;;;;;;2671640;76;22173;-90
2022/10/05 05:55:25;;;;;;;8.75;2.52;;;6.21;10.60;;;;;;2670439;76;21200;-89
2022/10/05 05:59:11;;;;;;;3.83;2.20;;;6.33;10.85;;;;;;2671547;76;22284;-89
2022/10/05 06:02:42;;;;;;;11.05;3.55;;;6.43;11.07;;;;;;2668857;76;22195;-89
2022/10/05 06:06:10;;;;;;;;;;;6.55;11.34;;;;;;2671583;76;22066;-89
2022/10/05 06:09:43;;;;;;;9.38;3.95;;;6.69;11.56;;;;;;2671116;76;21080;-89
2022/10/05 06:13:11;;;;;;;;;;;6.80;11.79;;;;;;2671314;76;22661;-89
2022/10/05 06:16:42;;;;;;;11.28;4.33;;;6.88;12.05;;;;;;2670243;76;21628;-89
2022/10/05 06:20:10;;;;;;;;;;;7.01;12.33;;;;;;2671005;76;22420;-89
2022/10/05 06:23:46;;;;;;;20.55;6.83;;;7.19;12.53;;;;;;2670932;76;21629;-89
2022/10/05 06:27:17;;;;;;;35.05;6.40;;;7.33;12.82;;;;;;2671688;76;22388;-89
2022/10/05 06:30:45;;;;;;;;;;;7.53;13.14;;;;;;2671519;76;22360;-89
2022/10/05 06:34:19;;;;;;;17.82;4.72;;;7.64;13.28;;;;;;2670737;76;21105;-89
2022/10/05 06:37:47;;;;;;;;;;;7.74;13.50;;;;;;2671179;76;22390;-89
2022/10/05 06:41:22;;;;;;;23.98;5.30;;;7.82;13.81;;;;;;2671153;76;21097;-89
2022/10/05 06:44:52;;;;;;;;;;;7.91;14.13;;;;;;2671905;76;22195;-90
2022/10/05 06:48:19;;;;;;;;;;;8.04;14.38;;;;;;2671287;76;20514;-89
2022/10/05 06:51:53;;;;;;;24.60;4.90;;;8.24;14.58;;;;;;2670605;76;21083;-89
2022/10/05 06:55:21;;;;;;;;;;;8.39;14.85;;;;;;2671941;76;22239;-89
2022/10/05 06:58:55;;;;;;;9.23;3.25;;;8.60;15.36;;;;;;2670839;76;21568;-89
2022/10/05 07:02:23;;;;;;;;;;;8.76;15.69;;;;;;2671611;76;22188;-89
2022/10/05 07:05:53;;;;;;;7.22;2.65;;;8.89;16.11;;;;;;2671609;76;20991;-88
2022/10/05 07:09:21;;;;;;;;;;;9.06;16.44;;;;;;2672025;76;22325;-87
2022/10/05 07:20:22;;;;;;;8.10;2.50;;;9.54;17.25;;;;;;2672556;76;22626;-88
2022/10/05 07:23:56;;;;;;;4.70;2.40;;;9.67;17.54;;;;;;2671441;76;22330;-88
2022/10/05 07:27:25;;;;;;;;;;;9.84;17.78;;;;;;2671537;76;23163;-89
2022/10/05 07:30:58;;;;;;;8.23;2.83;;;9.96;17.94;;;;;;2671857;76;21028;-89
2022/10/05 07:34:26;;;;;;;;;;;10.15;18.29;;;;;;2669849;76;22322;-89
2022/10/05 07:37:57;;;;;;;26.27;6.97;;;10.36;18.51;;;;;;2670791;76;21119;-87
2022/10/05 07:41:25;;;;;;;;;;;10.54;18.85;;;;;;2671203;76;22865;-88
2022/10/05 07:48:38;;;;;;;7.50;3.20;;;10.83;19.42;;;;;;2670685;76;22299;-89
2022/10/05 07:52:07;;;;;;;;;;;11.01;19.81;;;;;;2671873;76;22308;-89
2022/10/05 07:55:37;;;;;;;6.55;2.90;;;11.18;20.14;;;;;;2670399;76;20998;-89
2022/10/05 07:59:06;;;;;;;;;;;11.39;20.00;;;;;;2671342;76;22313;-87
2022/10/05 08:02:41;;;;;;;6.85;2.42;;;11.53;20.15;;;;;;2670665;76;21585;-87
2022/10/05 08:06:07;;;;;;;;;;;11.69;20.19;;;;;;2671277;76;22919;-88
2022/10/05 08:09:37;;;;;;;9.80;1.92;;;11.81;20.11;;;;;;2670372;76;21541;-88
2022/10/05 08:13:05;;;;;;;;;;;12.01;20.21;;;;;;2671387;76;22202;-88
2022/10/05 08:16:36;;;;;;;9.15;1.98;;;12.13;20.15;;;;;;2671266;76;21532;-88
2022/10/05 08:20:05;;;;;;;;;;;12.29;20.18;;;;;;2671482;76;22688;-88
2022/10/05 08:23:37;;;;;;;5.67;1.92;;;12.43;20.03;;;;;;2671506;76;21586;-88
2022/10/05 08:27:05;;;;;;;;;;;12.63;20.21;;;;;;2672042;76;22887;-88
2022/10/05 08:30:35;;;;;;;4.10;1.80;;;12.84;20.20;;;;;;2671671;76;21205;-88
2022/10/05 08:34:03;;;;;;;;;;;13.03;19.95;;;;;;2670793;76;22305;-88
2022/10/05 08:37:37;;;;;;;2.83;1.37;;;13.14;19.78;;;;;;2670361;76;21125;-88
2022/10/05 08:41:06;;;;;;;;;;;13.31;19.90;;;;;;2671626;76;22174;-88
2022/10/05 08:44:36;;;;;;;7.42;1.60;;;13.44;19.70;;;;;;2671169;76;21106;-88
2022/10/05 08:48:04;;;;;;;;;;;13.54;19.60;;;;;;2671651;76;22278;-88
2022/10/05 08:51:47;;;;;;;2.62;1.10;;;13.71;19.71;;;;;;2671283;76;21080;-87
2022/10/05 08:55:24;;;;;;;3.72;1.75;;;13.93;20.01;;;;;;2672321;76;22441;-88
2022/10/05 08:59:11;;;;;;;8.20;1.60;;;14.07;19.80;;;;;;2672420;76;22363;-88
2022/10/05 09:02:58;;;;;;;6.00;1.47;;;14.23;19.87;;;;;;2671240;76;22629;-88
2022/10/05 09:06:45;;;;;;;5.97;1.37;;;14.33;19.96;;;;;;2670702;76;22356;-87
2022/10/05 09:10:25;;;;;;;2.62;0.90;;;14.49;20.02;;;;;;2670893;76;22297;-88
2022/10/05 09:13:59;;;;;;;4.37;1.00;;;14.68;19.73;;;;;;2671792;76;22286;-88
2022/10/05 09:17:27;;;;;;;;;;;14.79;19.50;;;;;;2671429;76;22378;-87
2022/10/05 09:21:01;;;;;;;2.67;0.85;;;14.96;19.42;;;;;;2668606;76;21172;-87
2022/10/05 09:24:29;;;;;;;;;;;15.11;19.41;;;;;;2671974;76;22292;-89
2022/10/05 09:28:00;;;;;;;2.85;1.00;;;15.31;19.17;;;;;;2670879;76;21099;-88
2022/10/05 09:31:28;;;;;;;;;;;15.47;18.58;;;;;;2670937;76;22359;-88
2022/10/05 09:35:11;;;;;;;3.45;1.07;;;15.65;19.15;;;;;;2670232;76;21113;-88
2022/10/05 09:38:54;;;;;;;2.50;1.12;;;15.96;18.91;;;;;;2670698;76;22185;-88
2022/10/05 09:42:24;;;;;;;2.65;0.88;;;16.16;17.74;;;;;;2671064;76;22708;-88
2022/10/05 09:45:52;;;;;;;;;;;16.41;18.29;;;;;;2670964;76;22368;-87
2022/10/05 09:49:39;;;;;;;1.60;0.62;;;16.65;17.18;;;;;;2670551;76;21097;-89
2022/10/05 09:57:05;;;;;;;1.15;0.70;;;17.17;16.74;;;;;;2672120;76;22392;-88
2022/10/05 10:00:54;;;;;;;1.25;0.62;;;17.45;15.46;;;;;;2670272;76;22318;-89
2022/10/05 10:04:29;;;;;;;4.35;0.90;;;17.58;16.11;;;;;;2671472;76;22333;-86
2022/10/05 10:07:57;;;;;;;;;;;17.73;14.03;;;;;;2670199;76;22856;-88
2022/10/05 10:11:25;;;;;;;;;;;17.92;13.20;;;;;;2669578;76;20571;-87
2022/10/05 10:19:00;;;;;;;1.50;0.70;;;18.28;11.59;;;;;;2670687;76;22275;-88
2022/10/05 10:22:43;;;;;;;1.85;0.80;;;18.48;11.19;;;;;;2670520;76;22132;-88
2022/10/05 10:26:30;;;;;;;3.10;0.72;;;18.63;13.07;;;;;;2670835;76;22642;-91
2022/10/05 10:30:02;;;;;;;1.10;0.60;;;18.81;11.30;;;;;;2670005;76;22817;-88
2022/10/05 10:33:33;;;;;;;;;;;19.12;13.29;;;;;;2669804;76;22411;-88
2022/10/05 10:37:19;;;;;;;1.37;0.70;;;19.37;8.98;;;;;;2670014;76;21128;-89
2022/10/05 10:40:56;;;;;;;0.47;0.47;;;19.61;10.37;;;;;;2671499;76;22748;-90
2022/10/05 10:44:46;;;;;;;1.15;0.60;;;19.85;7.08;;;;;;2670182;76;22301;-90
2022/10/05 10:48:21;;;;;;;0.50;0.50;;;20.11;7.07;;;;;;2669073;76;22288;-90
2022/10/05 10:52:01;;;;;;;0.80;0.65;;;20.26;4.95;;;;;;2669902;76;22280;-90
2022/10/05 10:55:31;;;;;;;1.10;0.50;;;20.56;3.94;;;;;;2671879;76;22659;-90
2022/10/05 10:58:59;;;;;;;;;;;20.88;4.66;;;;;;2669665;76;22230;-90
2022/10/05 11:02:36;;;;;;;0.65;0.57;;;21.22;5.93;;;;;;2670028;76;21107;-91
2022/10/05 11:06:03;;;;;;;;;;;21.39;2.35;;;;;;2670849;76;22327;-90
2022/10/05 11:09:33;;;;;;;2.20;0.60;;;21.72;1.22;;;;;;2669100;76;21115;-90
2022/10/05 11:13:01;;;;;;;;;;;21.78;0.07;;;;;;2669734;76;22252;-91
2022/10/05 11:16:35;;;;;;;2.72;0.68;;;21.97;1.34;;;;;;2670211;76;21114;-89
2022/10/05 11:20:03;;;;;;;;;;;22.02;-0.49;;;;;;2671267;76;22173;-91
2022/10/05 11:23:42;;;;;;;3.60;0.88;;;22.02;-1.65;;;;;;2670969;76;20988;-91
2022/10/05 11:27:21;;;;;;;5.20;0.78;;;22.06;-3.02;;;;;;2669010;76;22282;-88
2022/10/05 11:30:58;;;;;;;1.30;0.60;;;22.16;-3.86;;;;;;2671185;76;22306;-91
2022/10/05 11:34:29;;;;;;;5.30;0.90;;;22.47;-0.77;;;;;;2670632;76;22456;-91
2022/10/05 11:37:57;;;;;;;;;;;22.53;-2.11;;;;;;2671411;76;22285;-91
2022/10/05 11:41:32;;;;;;;2.10;0.60;;;22.75;-0.41;;;;;;2672099;76;21066;-94
2022/10/05 11:48:46;;;;;;;1.00;0.50;;;22.78;-0.05;;;;;;2672060;76;20492;-92
2022/10/05 11:52:28;;;;;;;1.20;0.60;;;22.68;-1.66;;;;;;2671796;76;22128;-89
2022/10/05 11:55:59;;;;;;;1.70;0.80;;;22.56;-3.48;;;;;;2672235;76;22162;-91
2022/10/05 11:59:27;;;;;;;;;;;22.75;-1.04;;;;;;2671103;76;22172;-91
2022/10/05 12:02:58;;;;;;;3.33;0.85;;;22.90;-1.67;;;;;;2672507;76;21453;-92
2022/10/05 12:06:28;;;;;;;;;;;22.96;-0.71;;;;;;2672741;76;22387;-91
2022/10/05 12:10:13;;;;;;;;;;;22.96;-2.85;;;;;;2672151;76;20539;-93
2022/10/05 12:13:50;;;;;;;1.00;0.70;;;22.96;-3.38;;;;;;2672153;76;20541;-91
2022/10/05 12:17:20;;;;;;;0.80;0.65;;;22.99;-2.72;;;;;;2672260;76;22291;-89
2022/10/05 12:20:48;;;;;;;;;;;22.87;-5.27;;;;;;2672581;76;22238;-91
2022/10/05 12:24:19;;;;;;;1.00;0.70;;;22.90;-5.69;;;;;;2671868;76;21109;-90
2022/10/05 12:27:47;;;;;;;;;;;23.00;-5.07;;;;;;2671650;76;22299;-90
2022/10/05 12:31:20;;;;;;;1.10;0.72;;;23.08;-4.84;;;;;;2671804;76;21114;-90
2022/10/05 12:34:49;;;;;;;;;;;23.03;118.23;;;;;;2672225;76;22275;-93
2022/10/05 12:38:27;;;;;;;5.65;0.50;;;23.03;117.60;;;;;;2671546;76;21079;-93
2022/10/05 12:42:01;;;;;;;3.70;0.50;;;23.23;117.99;;;;;;2672740;76;22837;-92
2022/10/05 12:45:29;;;;;;;;;;;23.34;118.14;;;;;;2672603;76;23176;-91
2022/10/05 12:48:59;;;;;;;0.68;0.60;;;23.38;115.70;;;;;;2677758;76;21101;-93
2022/10/05 12:53:01;;;;;;;;;;;23.58;116.89;;;;;;2678277;76;22204;-93
2022/10/05 12:56:28;;;;;;;3.60;0.70;;;23.70;115.77;;;;;;2679929;76;20381;-91
2022/10/05 13:00:01;;;;;;;3.85;0.70;;;23.83;115.26;;;;;;2671750;76;22201;-89
2022/10/05 13:03:29;;;;;;;;;;;23.89;113.45;;;;;;2672148;76;22574;-89
2022/10/05 13:07:16;;;;;;;4.90;0.60;;;24.03;113.86;;;;;;2671940;76;20995;-92
2022/10/05 13:10:58;;;;;;;2.35;0.60;;;24.19;113.64;;;;;;2672064;76;22188;-93
2022/10/05 13:14:32;;;;;;;0.60;0.60;;;24.39;114.52;;;;;;2672445;76;22438;-90
2022/10/05 13:18:00;;;;;;;;;;;24.16;110.97;;;;;;2672342;76;22479;-90
2022/10/05 13:21:33;;;;;;;0.53;0.47;;;24.38;113.06;;;;;;2672065;76;21021;-90
2022/10/05 13:25:01;;;;;;;;;;;24.24;109.81;;;;;;2671765;76;22219;-91
2022/10/05 13:28:32;;;;;;;1.02;0.50;;;24.41;110.54;;;;;;2670459;76;21576;-88
2022/10/05 13:32:00;;;;;;;;;;;24.57;110.78;;;;;;2670954;76;22144;-89
2022/10/05 13:35:43;;;;;;;1.50;0.50;;;24.66;110.68;;;;;;2671057;76;21597;-89
2022/10/05 13:39:26;;;;;;;3.72;0.90;;;24.55;109.00;;;;;;2671846;76;22115;-91
2022/10/05 13:42:57;;;;;;;1.02;0.50;;;24.66;109.24;;;;;;2672924;76;22278;-90
2022/10/05 13:46:27;;;;;;;;;;;24.83;109.16;;;;;;2671691;76;22323;-90
2022/10/05 13:50:07;;;;;;;1.90;0.60;;;24.90;108.97;;;;;;2671442;76;21113;-90
2022/10/05 13:53:50;;;;;;;2.00;0.90;;;25.10;110.00;;;;;;2671442;76;22270;-88
2022/10/05 13:57:20;;;;;;;1.27;0.53;;;24.98;108.96;;;;;;2672777;76;22279;-91
2022/10/05 14:00:50;;;;;;;;;;;25.13;110.17;;;;;;2672575;76;22247;-90
2022/10/05 14:04:20;;;;;;;0.72;0.40;;;25.27;111.03;;;;;;2674450;76;21147;-89
2022/10/05 14:07:52;;;;;;;;;;;25.32;110.50;;;;;;2672485;76;22760;-91
2022/10/05 14:11:22;;;;;;;0.40;0.37;;;25.16;108.97;;;;;;2670680;76;21088;-89
2022/10/05 14:14:50;;;;;;;;;;;25.23;109.50;;;;;;2672708;76;22326;-90
2022/10/05 14:23:01;;;;;;;3.55;0.45;;;25.32;110.23;;;;;;2671129;76;22401;-89
2022/10/05 14:26:32;;;;;;;0.60;0.50;;;25.33;110.07;;;;;;2674008;76;22274;-92
2022/10/05 14:30:00;;;;;;;;;;;25.35;109.97;;;;;;2672872;76;22282;-91
2022/10/05 14:33:33;;;;;;;0.93;0.33;;;25.37;110.46;;;;;;2671595;76;21095;-91
2022/10/05 14:37:08;;;;;;;0.75;0.40;;;25.32;110.54;;;;;;2671165;76;22481;-91
2022/10/05 14:40:37;;;;;;;;;;;25.30;110.66;;;;;;2671137;76;22270;-91
2022/10/05 14:44:05;;;;;;;;;;;25.22;110.56;;;;;;2671412;76;22399;-92
2022/10/05 14:47:38;;;;;;;0.90;0.50;;;25.12;110.14;;;;;;2670818;76;21089;-89
2022/10/05 14:51:05;;;;;;;;;;;25.02;109.91;;;;;;2670803;76;22299;-89
2022/10/05 14:54:48;;;;;;;0.40;0.30;;;24.93;110.33;;;;;;2671511;76;21519;-89
2022/10/05 14:58:24;;;;;;;0.35;0.35;;;24.77;110.27;;;;;;2671008;76;22287;-89
2022/10/05 15:01:56;;;;;;;0.70;0.50;;;24.66;110.68;;;;;;2671627;76;22811;-91
2022/10/05 15:05:24;;;;;;;;;;;24.49;111.13;;;;;;2675827;76;22322;-92
2022/10/05 15:08:57;;;;;;;0.98;0.50;;;24.35;111.71;;;;;;2674463;76;21142;-92
2022/10/05 15:12:26;;;;;;;;;;;24.21;112.23;;;;;;2675303;76;22752;-92
2022/10/05 15:15:59;;;;;;;0.68;0.40;;;24.06;112.78;;;;;;2673145;76;21005;-93
2022/10/05 15:19:27;;;;;;;;;;;23.99;113.01;;;;;;2674844;76;22248;-92
2022/10/05 15:23:15;;;;;;;0.62;0.50;;;24.12;112.87;;;;;;2673984;76;21108;-92
2022/10/05 15:26:52;;;;;;;0.65;0.50;;;24.21;112.66;;;;;;2674371;76;22191;-93
2022/10/05 15:30:21;;;;;;;1.90;0.50;;;24.19;112.90;;;;;;2676039;76;22301;-91
2022/10/05 15:33:50;;;;;;;;;;;23.89;113.47;;;;;;2675501;76;22276;-92
2022/10/05 15:37:20;;;;;;;3.62;0.75;;;23.50;114.03;;;;;;2675675;76;20989;-93
2022/10/05 15:40:49;;;;;;;;;;;23.12;114.87;;;;;;2676400;76;22259;-93
2022/10/05 15:44:36;;;;;;;2.42;0.82;;;22.80;115.71;;;;;;2675636;76;21570;-92
2022/10/05 15:48:09;;;;;;;5.70;1.47;;;22.41;116.76;;;;;;2674835;76;22550;-92
2022/10/05 15:51:37;;;;;;;;;;;22.13;117.57;;;;;;2675734;76;22300;-92
2022/10/05 15:55:10;;;;;;;2.55;0.98;;;21.78;118.13;;;;;;2675241;76;21213;-92
2022/10/05 15:58:39;;;;;;;;;;;21.50;118.28;;;;;;2675225;76;22254;-92
2022/10/05 16:02:09;;;;;;;3.10;1.00;;;21.28;-5.76;;;;;;2675332;76;20971;-92
2022/10/05 16:09:31;;;;;;;0.70;0.50;;;20.65;-4.41;;;;;;2675169;76;20544;-92
2022/10/05 16:12:59;;;;;;;;;;;20.35;-3.84;;;;;;2675004;76;22150;-92
2022/10/05 16:16:29;;;;;;;8.13;0.62;;;20.11;-3.28;;;;;;2675160;76;21091;-91
2022/10/05 16:19:57;;;;;;;;;;;19.83;-3.06;;;;;;2675146;76;22193;-92
2022/10/05 16:23:45;;;;;;;3.50;0.53;;;19.54;-2.88;;;;;;2674263;76;21092;-91
2022/10/05 16:27:14;;;;;;;;;;;19.20;-2.61;;;;;;2673682;76;22354;-88
2022/10/05 16:30:57;;;;;;;3.00;0.65;;;18.84;-2.23;;;;;;2671483;76;20446;-88
2022/10/05 16:38:16;;;;;;;1.40;0.85;;;18.21;-0.20;;;;;;2671710;76;22383;-87
2022/10/05 16:41:49;;;;;;;4.13;1.20;;;17.92;0.69;;;;;;2671889;76;22338;-88
2022/10/05 16:45:17;;;;;;;;;;;17.65;1.53;;;;;;2671334;76;22255;-88
2022/10/05 16:48:54;;;;;;;2.85;0.62;;;17.46;2.33;;;;;;2670487;76;21084;-88
2022/10/05 16:52:25;;;;;;;3.10;1.20;;;17.22;3.02;;;;;;2670431;76;22820;-88
2022/10/05 16:55:53;;;;;;;;;;;17.02;3.85;;;;;;2670055;76;22329;-87
2022/10/05 16:59:26;;;;;;;2.75;1.00;;;16.86;4.62;;;;;;2670772;76;21096;-87
2022/10/05 17:02:55;;;;;;;;;;;16.65;5.38;;;;;;2671501;76;22256;-86
2022/10/05 17:06:28;;;;;;;5.60;0.85;;;16.45;6.04;;;;;;2670574;76;21738;-86
2022/10/05 17:09:56;;;;;;;;;;;16.25;6.68;;;;;;2671541;76;22271;-86
2022/10/05 17:17:06;;;;;;;4.40;0.90;;;16.01;7.98;;;;;;2671265;76;22339;-86
2022/10/05 17:20:35;;;;;;;;;;;15.90;8.16;;;;;;2671843;76;22304;-87
2022/10/05 17:24:05;;;;;;;3.85;0.90;;;15.81;8.29;;;;;;2670117;76;21123;-87
2022/10/05 17:27:34;;;;;;;;;;;15.69;8.64;;;;;;2669326;76;22835;-87
2022/10/05 17:31:04;;;;;;;5.35;1.87;;;15.56;9.02;;;;;;2668768;76;21154;-88
2022/10/05 17:34:35;;;;;;;;;;;15.45;9.65;;;;;;2671373;76;22691;-88
2022/10/05 17:38:24;;;;;;;5.10;1.55;;;15.36;9.94;;;;;;2670585;76;21114;-87
2022/10/05 17:41:55;;;;;;;4.33;1.30;;;15.19;10.54;;;;;;2671331;76;22862;-85
2022/10/05 17:45:23;;;;;;;;;;;15.12;10.85;;;;;;2671273;76;22238;-85
2022/10/05 17:48:58;;;;;;;6.67;2.40;;;15.02;10.93;;;;;;2670744;76;21109;-85
2022/10/05 17:56:13;;;;;;;11.08;2.00;;;14.79;11.42;;;;;;2671323;76;22502;-85
2022/10/05 17:59:43;;;;;;;;;;;14.74;11.68;;;;;;2671398;76;22223;-85
2022/10/05 18:03:30;;;;;;;6.03;2.52;;;14.68;11.91;;;;;;2670421;76;21271;-85
2022/10/05 18:07:05;;;;;;;7.25;2.50;;;14.56;12.12;;;;;;2668766;76;22902;-87
2022/10/05 18:10:39;;;;;;;;;;;14.50;12.36;;;;;;2670276;76;22184;-88
2022/10/05 18:14:04;;;;;;;;;;;14.43;12.56;;;;;;2668853;76;20540;-88
2022/10/05 18:17:34;;;;;;;8.15;1.32;;;14.41;13.01;;;;;;2667794;76;21666;-87
2022/10/05 18:21:02;;;;;;;;;;;14.44;13.38;;;;;;2668594;76;22970;-88
2022/10/05 18:24:38;;;;;;;5.53;1.50;;;14.39;13.20;;;;;;2669066;76;21188;-87
2022/10/05 18:28:12;;;;;;;8.75;1.60;;;14.37;13.01;;;;;;2668807;76;22377;-86
2022/10/05 18:31:41;;;;;;;;;;;14.24;12.84;;;;;;2668779;76;22199;-85
2022/10/05 18:35:14;;;;;;;10.05;1.90;;;14.14;12.79;;;;;;2668278;76;21149;-84
2022/10/05 18:38:42;;;;;;;;;;;14.11;13.03;;;;;;2667402;76;22203;-88
2022/10/05 18:42:23;;;;;;;4.22;2.02;;;14.11;13.10;;;;;;2669411;76;21664;-88
2022/10/05 18:46:03;;;;;;;4.80;2.90;;;14.01;12.95;;;;;;2669837;76;22348;-89
2022/10/05 18:49:42;;;;;;;10.47;3.40;;;13.94;12.95;;;;;;2669443;76;22783;-88
2022/10/05 18:53:19;;;;;;;6.90;2.83;;;13.93;13.34;;;;;;2668618;76;22331;-86
2022/10/05 18:56:51;;;;;;;8.80;3.60;;;13.92;13.30;;;;;;2669462;76;22302;-86
2022/10/05 19:00:20;;;;;;;;;;;13.86;13.13;;;;;;2668996;76;22222;-85
2022/10/05 19:04:08;;;;;;;10.72;3.90;;;13.81;13.08;;;;;;2669264;76;21142;-87
2022/10/05 19:07:42;;;;;;;8.05;2.85;;;13.79;13.18;;;;;;2669618;76;22474;-87
2022/10/05 19:11:10;;;;;;;;;;;13.76;13.18;;;;;;2668738;76;22232;-87
2022/10/05 19:14:49;;;;;;;11.73;2.80;;;13.75;13.29;;;;;;2663550;76;21100;-86
2022/10/05 19:18:20;;;;;;;7.75;2.05;;;13.63;13.18;;;;;;2667420;76;22306;-87
2022/10/05 19:21:48;;;;;;;;;;;13.60;13.09;;;;;;2667457;76;22813;-86
2022/10/05 19:25:19;;;;;;;5.25;2.00;;;13.54;13.19;;;;;;2667834;76;21099;-87
2022/10/05 19:28:48;;;;;;;;;;;13.49;13.26;;;;;;2668886;76;22341;-87
2022/10/05 19:32:18;;;;;;;5.22;1.82;;;13.48;13.29;;;;;;2666652;76;21333;-85
2022/10/05 19:35:56;;;;;;;;;;;13.43;13.33;;;;;;2667589;76;23395;-87
2022/10/05 19:39:22;;;;;;;;;;;13.35;13.40;;;;;;2667238;76;20904;-87
2022/10/05 19:47:00;;;;;;;5.35;1.57;;;13.29;13.74;;;;;;2666500;76;22248;-86
2022/10/05 19:50:33;;;;;;;13.03;2.20;;;13.36;14.02;;;;;;2664930;76;22211;-88
2022/10/05 19:54:15;;;;;;;5.80;2.00;;;13.37;14.07;;;;;;2667334;76;22264;-91
2022/10/05 19:57:52;;;;;;;7.40;1.97;;;13.35;13.96;;;;;;2668204;76;22307;-92
2022/10/05 20:01:24;;;;;;;5.20;1.70;;;13.33;13.72;;;;;;2668420;76;22272;-90
2022/10/05 20:08:39;;;;;;;5.57;1.90;;;13.23;13.78;;;;;;2668064;76;20500;-92
2022/10/05 20:12:07;;;;;;;;;;;13.27;14.04;;;;;;2669941;76;22331;-90
2022/10/05 20:23:29;;;;;;;6.25;1.98;;;13.23;13.94;;;;;;2669157;76;22589;-86
2022/10/05 20:27:12;;;;;;;8.28;2.20;;;13.25;14.03;;;;;;2669785;76;22265;-87
2022/10/05 20:30:36;;;;;;;3.95;1.75;;;13.30;14.03;;;;;;2667329;76;22285;-85
2022/10/05 20:34:10;;;;;;;;;;;13.30;13.99;;;;;;2669151;76;22285;-87
2022/10/05 20:37:39;;;;;;;5.58;1.77;;;13.33;13.80;;;;;;2668336;76;21099;-91
2022/10/05 20:41:15;;;;;;;;;;;13.21;13.42;;;;;;2669166;76;22268;-92
2022/10/05 20:44:45;;;;;;;;;;;13.16;13.40;;;;;;2670205;76;22272;-92
2022/10/05 20:48:15;;;;;;;6.33;1.87;;;13.08;13.40;;;;;;2670003;76;21109;-91
2022/10/05 20:51:44;;;;;;;;;;;13.09;13.45;;;;;;2674629;76;22135;-91
2022/10/05 20:55:13;;;;;;;3.62;1.47;;;13.07;13.55;;;;;;2676600;76;21794;-91
2022/10/05 20:58:43;;;;;;;;;;;13.05;13.60;;;;;;2671293;76;23016;-91
2022/10/05 21:02:11;;;;;;;4.08;1.77;;;13.05;13.68;;;;;;2670600;76;21140;-89
2022/10/05 21:05:40;;;;;;;;;;;13.04;13.78;;;;;;2670625;76;22190;-92
2022/10/05 21:09:10;;;;;;;5.25;2.00;;;13.06;13.93;;;;;;2669641;76;21102;-90
2022/10/05 21:12:38;;;;;;;;;;;13.07;14.11;;;;;;2670679;76;22297;-91